createdAt,value
2017-09-18T00:01:04.548Z,55.04
2017-09-18T00:03:30.763Z,54.17
2017-09-18T00:05:56.973Z,53.67
2017-09-18T00:08:23.262Z,54.89
2017-09-18T00:10:49.486Z,55.09
2017-09-18T00:13:15.699Z,55.70
2017-09-18T00:15:41.967Z,55.27
2017-09-18T00:18:08.180Z,57.07
2017-09-18T00:20:34.388Z,57.45
2017-09-18T00:23:00.675Z,57.11
2017-09-18T00:25:26.888Z,57.05
2017-09-18T00:27:53.116Z,57.40
2017-09-18T00:30:19.374Z,57.38
2017-09-18T00:32:45.571Z,57.26
2017-09-18T00:35:11.849Z,58.41
2017-09-18T00:37:38.117Z,57.99
2017-09-18T00:40:04.328Z,60.48
2017-09-18T00:42:30.584Z,59.79
2017-09-18T00:44:56.872Z,59.45
2017-09-18T00:47:23.103Z,59.70
2017-09-18T00:49:49.330Z,60.14
2017-09-18T00:52:15.609Z,60.99
2017-09-18T00:54:41.840Z,60.65
2017-09-18T00:57:08.051Z,61.35
2017-09-18T00:59:34.311Z,61.60
2017-09-18T01:02:00.510Z,61.69
2017-09-18T01:04:26.719Z,61.52
2017-09-18T01:06:52.999Z,61.52
2017-09-18T01:09:19.235Z,61.00
2017-09-18T01:11:45.445Z,63.23
2017-09-18T01:14:11.718Z,62.68
2017-09-18T01:16:37.966Z,62.32
2017-09-18T01:19:04.208Z,63.70
2017-09-18T01:21:30.500Z,63.64
2017-09-18T01:23:56.726Z,62.72
2017-09-18T01:26:22.950Z,61.96
2017-09-18T01:28:49.241Z,62.18
2017-09-18T01:31:15.503Z,62.77
2017-09-18T01:33:41.741Z,61.94
2017-09-18T01:36:08.014Z,62.30
2017-09-18T01:38:34.251Z,63.70
2017-09-18T01:41:00.475Z,63.94
2017-09-18T01:43:26.882Z,65.04
2017-09-18T01:45:53.115Z,64.22
2017-09-18T01:48:19.324Z,64.41
2017-09-18T01:50:45.606Z,62.98
2017-09-18T01:53:11.842Z,63.10
2017-09-18T01:55:38.069Z,63.55
2017-09-18T01:58:04.359Z,63.72
2017-09-18T02:00:30.589Z,63.42
2017-09-18T02:02:56.814Z,63.18
2017-09-18T02:05:23.105Z,63.08
2017-09-18T02:07:49.348Z,64.63
2017-09-18T02:10:15.588Z,64.71
2017-09-18T02:12:41.868Z,66.13
2017-09-18T02:15:08.100Z,66.81
2017-09-18T02:17:34.344Z,66.05
2017-09-18T02:20:00.636Z,65.12
2017-09-18T02:22:26.876Z,66.76
2017-09-18T02:24:53.110Z,65.73
2017-09-18T02:27:19.386Z,64.62
2017-09-18T02:29:45.616Z,65.88
2017-09-18T02:32:11.832Z,66.15
2017-09-18T02:34:38.114Z,66.52
2017-09-18T02:37:04.346Z,66.55
2017-09-18T02:39:30.581Z,66.70
2017-09-18T02:41:56.858Z,66.10
2017-09-18T02:44:23.078Z,65.00
2017-09-18T02:46:49.292Z,65.51
2017-09-18T02:49:15.842Z,64.91
2017-09-18T02:51:42.084Z,63.98
2017-09-18T02:54:08.326Z,64.27
2017-09-18T02:56:34.606Z,64.55
2017-09-18T02:59:00.824Z,66.87
2017-09-18T03:01:27.059Z,65.67
2017-09-18T03:03:53.277Z,66.02
2017-09-18T03:06:19.513Z,67.00
2017-09-18T03:08:45.748Z,67.19
2017-09-18T03:11:11.973Z,66.59
2017-09-18T03:13:38.201Z,67.05
2017-09-18T03:16:04.433Z,66.91
2017-09-18T03:18:30.674Z,66.16
2017-09-18T03:20:56.931Z,66.36
2017-09-18T03:23:23.211Z,65.94
2017-09-18T03:25:49.534Z,66.00
2017-09-18T03:28:15.761Z,68.08
2017-09-18T03:30:42.271Z,67.70
2017-09-18T03:33:08.514Z,70.56
2017-09-18T03:35:34.752Z,68.37
2017-09-18T03:38:01.037Z,69.55
2017-09-18T03:40:27.255Z,70.28
2017-09-18T03:42:53.466Z,69.14
2017-09-18T03:45:19.741Z,69.07
2017-09-18T03:47:45.961Z,70.14
2017-09-18T03:50:12.189Z,70.89
2017-09-18T03:52:38.471Z,70.59
2017-09-18T03:55:04.702Z,69.55
2017-09-18T03:57:30.920Z,68.91
2017-09-18T03:59:57.222Z,69.53
2017-09-18T04:02:23.454Z,68.85
2017-09-18T04:04:49.695Z,69.71
2017-09-18T04:07:15.980Z,69.11
2017-09-18T04:09:42.200Z,68.50
2017-09-18T04:12:08.429Z,68.90
2017-09-18T04:14:34.713Z,67.49
2017-09-18T04:17:00.943Z,69.36
2017-09-18T04:19:27.181Z,68.27
2017-09-18T04:21:53.456Z,67.72
2017-09-18T04:24:19.684Z,66.98
2017-09-18T04:26:45.912Z,65.34
2017-09-18T04:29:12.204Z,63.68
2017-09-18T04:31:38.424Z,61.25
2017-09-18T04:34:04.647Z,59.48
2017-09-18T04:36:30.929Z,58.65
2017-09-18T04:38:57.142Z,58.96
2017-09-18T04:41:23.380Z,59.41
2017-09-18T04:43:49.669Z,55.58
2017-09-18T04:46:15.888Z,54.45
2017-09-18T04:48:42.104Z,52.75
2017-09-18T04:51:08.388Z,52.43
2017-09-18T04:53:34.608Z,49.24
2017-09-18T04:56:00.867Z,46.69
2017-09-18T04:58:27.170Z,47.39
2017-09-18T05:00:53.389Z,45.00
2017-09-18T05:03:19.652Z,44.82
2017-09-18T05:05:45.958Z,46.49
2017-09-18T05:08:12.319Z,46.65
2017-09-18T05:10:38.546Z,45.91
2017-09-18T05:13:04.826Z,44.38
2017-09-18T05:15:31.055Z,43.32
2017-09-18T05:17:57.274Z,41.10
2017-09-18T05:20:23.549Z,40.91
2017-09-18T05:22:49.901Z,37.35
2017-09-18T05:25:16.129Z,35.98
2017-09-18T05:27:42.411Z,35.11
2017-09-18T05:30:08.621Z,34.27
2017-09-18T05:32:34.859Z,33.92
2017-09-18T05:35:01.102Z,32.73
2017-09-18T05:37:27.335Z,31.58
2017-09-18T05:39:53.558Z,30.22
2017-09-18T05:42:19.858Z,30.04
2017-09-18T05:44:46.139Z,29.12
2017-09-18T05:47:12.372Z,29.86
2017-09-18T05:49:38.667Z,29.60
2017-09-18T05:52:04.897Z,29.37
2017-09-18T05:54:31.128Z,28.82
2017-09-18T05:56:57.420Z,30.83
2017-09-18T05:59:23.648Z,31.68
2017-09-18T06:01:49.871Z,32.79
2017-09-18T06:04:16.156Z,32.45
2017-09-18T06:06:42.373Z,31.86
2017-09-18T06:09:08.592Z,31.04
2017-09-18T06:11:34.895Z,29.32
2017-09-18T06:14:01.226Z,26.42
2017-09-18T06:16:27.456Z,25.06
2017-09-18T06:18:53.741Z,24.21
2017-09-18T06:21:19.964Z,24.30
2017-09-18T06:23:46.206Z,23.92
2017-09-18T06:26:12.499Z,23.42
2017-09-18T06:28:38.719Z,21.90
2017-09-18T06:31:04.955Z,21.71
2017-09-18T06:33:31.309Z,21.52
2017-09-18T06:35:57.539Z,23.39
2017-09-18T06:38:23.775Z,22.28
2017-09-18T06:40:50.059Z,21.76
2017-09-18T06:43:16.288Z,22.70
2017-09-18T06:45:42.515Z,22.05
2017-09-18T06:48:08.785Z,20.32
2017-09-18T06:50:35.130Z,21.16
2017-09-18T06:53:01.353Z,20.95
2017-09-18T06:55:27.632Z,21.91
2017-09-18T06:57:53.846Z,20.85
2017-09-18T07:00:20.049Z,20.09
2017-09-18T07:02:46.324Z,20.67
2017-09-18T07:05:12.544Z,19.72
2017-09-18T07:07:38.774Z,19.21
2017-09-18T07:10:05.042Z,19.26
2017-09-18T07:12:31.275Z,19.87
2017-09-18T07:14:57.509Z,19.75
2017-09-18T07:17:23.787Z,20.76
2017-09-18T07:19:50.020Z,19.91
2017-09-18T07:22:16.253Z,20.43
2017-09-18T07:24:42.518Z,19.65
2017-09-18T07:27:08.743Z,18.49
2017-09-18T07:29:35.012Z,19.78
2017-09-18T07:32:01.424Z,19.86
2017-09-18T07:34:27.644Z,19.41
2017-09-18T07:36:53.870Z,18.43
2017-09-18T07:39:20.147Z,18.18
2017-09-18T07:41:46.366Z,18.65
2017-09-18T07:44:12.580Z,19.43
2017-09-18T07:46:38.853Z,19.21
2017-09-18T07:49:05.064Z,19.38
2017-09-18T07:51:31.294Z,19.34
2017-09-18T07:53:57.586Z,19.38
2017-09-18T07:56:23.817Z,18.86
2017-09-18T07:58:50.045Z,19.28
2017-09-18T08:01:16.331Z,18.94
2017-09-18T08:03:42.539Z,17.82
2017-09-18T08:06:08.909Z,19.25
2017-09-18T08:08:35.182Z,20.06
2017-09-18T08:11:01.409Z,19.82
2017-09-18T08:13:27.622Z,20.01
2017-09-18T08:15:53.929Z,19.46
2017-09-18T08:18:20.153Z,21.55
2017-09-18T08:20:46.366Z,19.81
2017-09-18T08:23:12.638Z,21.02
2017-09-18T08:25:38.854Z,19.25
2017-09-18T08:28:05.103Z,18.74
2017-09-18T08:30:31.530Z,18.90
2017-09-18T08:32:57.760Z,18.46
2017-09-18T08:35:23.992Z,19.17
2017-09-18T08:37:50.277Z,20.15
2017-09-18T08:40:16.503Z,20.89
2017-09-18T08:42:42.736Z,18.85
2017-09-18T08:45:09.068Z,19.06
2017-09-18T08:47:35.289Z,19.78
2017-09-18T08:50:01.516Z,20.04
2017-09-18T08:52:27.796Z,20.04
2017-09-18T08:54:54.021Z,18.20
2017-09-18T08:57:20.242Z,17.80
2017-09-18T08:59:46.520Z,18.93
2017-09-18T09:02:12.742Z,20.30
2017-09-18T09:04:38.957Z,21.13
2017-09-18T09:07:05.253Z,19.75
2017-09-18T09:09:31.495Z,19.35
2017-09-18T09:11:57.844Z,16.84
2017-09-18T09:14:24.104Z,19.40
2017-09-18T09:16:50.317Z,18.28
2017-09-18T09:19:16.713Z,18.54
2017-09-18T09:21:42.989Z,17.53
2017-09-18T09:24:09.197Z,18.81
2017-09-18T09:26:35.413Z,18.80
2017-09-18T09:29:01.677Z,19.61
2017-09-18T09:31:27.897Z,19.01
2017-09-18T09:33:54.114Z,19.68
2017-09-18T09:36:20.388Z,19.39
2017-09-18T09:38:46.616Z,20.14
2017-09-18T09:41:12.893Z,20.00
2017-09-18T09:43:39.161Z,19.58
2017-09-18T09:46:05.392Z,18.79
2017-09-18T09:48:31.619Z,20.62
2017-09-18T09:50:57.904Z,19.17
2017-09-18T09:53:24.122Z,19.81
2017-09-18T09:55:50.350Z,19.63
2017-09-18T09:58:16.616Z,19.41
2017-09-18T10:00:42.828Z,19.69
2017-09-18T10:03:09.055Z,20.76
2017-09-18T10:05:35.460Z,18.26
2017-09-18T10:08:01.687Z,19.62
2017-09-18T10:10:27.908Z,18.37
2017-09-18T10:12:54.195Z,16.98
2017-09-18T10:15:20.440Z,16.76
2017-09-18T10:17:46.653Z,17.67
2017-09-18T10:20:12.962Z,18.32
2017-09-18T10:22:39.178Z,17.67
2017-09-18T10:25:05.404Z,19.20
2017-09-18T10:27:31.674Z,20.28
2017-09-18T10:29:57.911Z,18.36
2017-09-18T10:32:24.130Z,17.32
2017-09-18T10:48:37.608Z,16.89
2017-09-18T10:51:03.819Z,16.49
2017-09-18T10:53:30.038Z,15.91
2017-09-18T10:55:56.308Z,17.03
2017-09-18T10:58:22.534Z,16.73
2017-09-18T11:00:48.767Z,17.25
2017-09-18T11:03:15.054Z,15.84
2017-09-18T11:05:41.278Z,15.57
2017-09-18T11:08:07.616Z,16.12
2017-09-18T11:10:33.925Z,16.10
2017-09-18T11:13:00.139Z,17.71
2017-09-18T11:15:26.379Z,17.63
2017-09-18T11:17:52.721Z,18.01
2017-09-18T11:20:18.929Z,18.58
2017-09-18T11:22:45.192Z,16.83
2017-09-18T11:25:11.474Z,17.19
2017-09-18T11:27:37.697Z,16.72
2017-09-18T11:30:03.917Z,15.89
2017-09-18T11:32:30.198Z,16.04
2017-09-18T11:34:56.418Z,16.05
2017-09-18T11:37:22.630Z,15.93
2017-09-18T11:39:48.890Z,17.82
2017-09-18T11:42:15.106Z,17.59
2017-09-18T11:47:12.663Z,17.13
2017-09-18T11:49:39.015Z,17.49
2017-09-18T11:52:05.226Z,18.60
2017-09-18T11:54:31.473Z,17.76
2017-09-18T11:56:57.686Z,16.77
2017-09-18T11:59:23.911Z,16.55
2017-09-18T12:01:50.190Z,17.52
2017-09-18T12:04:16.397Z,17.60
2017-09-18T12:06:42.600Z,17.37
2017-09-18T12:09:08.864Z,17.30
2017-09-18T12:11:35.083Z,16.55
2017-09-18T12:14:01.323Z,17.09
2017-09-18T12:16:27.616Z,16.67
2017-09-18T12:18:53.907Z,17.09
2017-09-18T12:21:20.133Z,15.92
2017-09-18T12:23:46.422Z,15.39
2017-09-18T12:26:12.658Z,15.72
2017-09-18T12:28:38.881Z,16.85
2017-09-18T12:31:05.163Z,15.13
2017-09-18T12:33:31.428Z,14.71
2017-09-18T12:35:57.652Z,15.67
2017-09-18T12:38:23.945Z,18.14
2017-09-18T12:40:50.174Z,17.11
2017-09-18T12:56:40.648Z,15.76
2017-09-18T12:59:06.875Z,16.60
2017-09-18T13:01:33.100Z,18.52
2017-09-18T13:03:59.379Z,18.40
2017-09-18T13:06:25.604Z,18.65
2017-09-18T13:08:51.864Z,16.51
2017-09-18T13:11:18.149Z,17.73
2017-09-18T13:13:44.361Z,16.55
2017-09-18T13:16:10.594Z,15.91
2017-09-18T13:18:36.854Z,16.97
2017-09-18T13:21:03.065Z,16.02
2017-09-18T13:23:29.277Z,16.68
2017-09-18T13:25:55.594Z,19.03
2017-09-18T13:28:21.812Z,19.89
2017-09-18T13:30:48.041Z,20.11
2017-09-18T13:33:14.316Z,22.10
2017-09-18T13:35:40.529Z,22.93
2017-09-18T13:38:06.744Z,24.08
2017-09-18T13:40:33.009Z,24.47
2017-09-18T13:42:59.217Z,24.28
2017-09-18T13:45:25.401Z,24.53
2017-09-18T13:47:51.701Z,25.06
2017-09-18T13:50:17.916Z,25.29
2017-09-18T13:52:44.143Z,26.02
2017-09-18T13:55:10.418Z,25.57
2017-09-18T13:57:36.839Z,24.77
2017-09-18T14:00:03.058Z,25.85
2017-09-18T14:02:29.352Z,25.36
2017-09-18T14:04:55.573Z,25.97
2017-09-18T14:07:21.784Z,26.12
2017-09-18T14:09:48.076Z,26.27
2017-09-18T14:12:14.304Z,26.31
2017-09-18T14:14:40.517Z,26.71
2017-09-18T14:17:06.789Z,27.02
2017-09-18T14:19:33.012Z,27.43
2017-09-18T14:21:59.220Z,27.67
2017-09-18T14:24:25.513Z,27.45
2017-09-18T14:26:51.751Z,27.75
2017-09-18T14:29:17.981Z,26.90
2017-09-18T14:31:44.260Z,27.71
2017-09-18T14:34:10.493Z,27.83
2017-09-18T14:36:36.763Z,27.67
2017-09-18T14:39:03.035Z,27.28
2017-09-18T14:41:29.363Z,27.39
2017-09-18T14:43:55.598Z,27.27
2017-09-18T14:46:21.868Z,28.02
2017-09-18T14:48:48.078Z,27.33
2017-09-18T14:51:14.298Z,27.65
2017-09-18T14:53:40.563Z,28.37
2017-09-18T14:56:06.776Z,27.98
2017-09-18T14:58:32.985Z,28.43
2017-09-18T15:00:59.232Z,28.75
2017-09-18T15:03:25.438Z,29.44
2017-09-18T15:05:51.669Z,28.96
2017-09-18T15:08:17.923Z,29.32
2017-09-18T15:10:44.141Z,29.16
2017-09-18T15:13:10.362Z,28.86
2017-09-18T15:15:36.569Z,29.49
2017-09-18T15:18:02.777Z,30.41
2017-09-18T15:20:29.067Z,30.19
2017-09-18T15:22:55.278Z,29.76
2017-09-18T15:25:21.498Z,29.41
2017-09-18T15:27:47.755Z,29.95
2017-09-18T15:30:13.984Z,29.64
2017-09-18T15:32:40.196Z,30.86
2017-09-18T15:35:06.486Z,30.64
2017-09-18T15:37:32.710Z,31.18
2017-09-18T15:39:59.053Z,29.76
2017-09-18T15:42:25.336Z,29.97
2017-09-18T15:47:31.643Z,32.66
2017-09-18T15:49:57.866Z,32.36
2017-09-18T15:52:24.071Z,31.96
2017-09-18T15:54:50.544Z,33.60
2017-09-18T15:57:16.760Z,34.52
2017-09-18T15:59:42.980Z,37.47
2017-09-18T16:02:09.247Z,38.82
2017-09-18T16:04:35.463Z,39.94
2017-09-18T16:07:01.674Z,41.23
2017-09-18T16:09:27.958Z,40.50
2017-09-18T16:11:54.186Z,42.02
2017-09-18T16:14:20.409Z,43.11
2017-09-18T16:16:46.717Z,43.03
2017-09-18T16:19:12.951Z,42.59
2017-09-18T16:21:39.197Z,45.58
2017-09-18T16:24:05.477Z,46.06
2017-09-18T16:26:31.760Z,43.22
2017-09-18T16:28:57.985Z,45.64
2017-09-18T16:31:24.247Z,45.76
2017-09-18T16:33:50.482Z,46.41
2017-09-18T16:36:16.693Z,48.74
2017-09-18T16:38:42.963Z,48.73
2017-09-18T16:41:09.198Z,47.54
2017-09-18T16:43:35.427Z,48.55
2017-09-18T16:46:01.702Z,49.37
2017-09-18T16:48:27.921Z,50.03
2017-09-18T16:50:54.149Z,51.37
2017-09-18T16:53:20.417Z,50.69
2017-09-18T16:55:46.746Z,49.85
2017-09-18T16:58:12.979Z,50.66
2017-09-18T17:00:39.292Z,51.32
2017-09-18T17:03:05.512Z,50.76
2017-09-18T17:05:31.737Z,51.22
2017-09-18T17:07:58.089Z,51.31
2017-09-18T17:10:24.302Z,52.66
2017-09-18T17:12:50.497Z,52.89
2017-09-18T17:15:16.765Z,54.04
2017-09-18T17:17:42.995Z,51.39
2017-09-18T17:20:09.228Z,51.56
2017-09-18T17:22:35.488Z,51.09
2017-09-18T17:25:01.706Z,51.49
2017-09-18T17:27:27.921Z,49.24
2017-09-18T17:29:54.191Z,51.65
2017-09-18T17:32:20.419Z,52.49
2017-09-18T17:34:46.639Z,55.95
2017-09-18T17:37:12.909Z,55.82
2017-09-18T17:39:39.146Z,56.92
2017-09-18T17:42:05.489Z,60.64
2017-09-18T17:44:31.772Z,61.58
2017-09-18T17:46:57.979Z,56.12
2017-09-18T17:49:24.202Z,59.06
2017-09-18T17:51:51.521Z,57.47
2017-09-18T17:54:17.896Z,60.19
2017-09-18T17:56:44.156Z,62.17
2017-09-18T17:59:10.413Z,61.04
2017-09-18T18:01:36.594Z,61.50
2017-09-18T18:04:03.058Z,61.89
2017-09-18T18:06:29.445Z,58.97
2017-09-18T18:08:55.658Z,57.93
2017-09-18T18:11:21.853Z,58.82
2017-09-18T18:13:48.175Z,56.64
2017-09-18T18:16:14.768Z,61.09
2017-09-18T18:18:41.000Z,61.66
2017-09-18T18:21:07.437Z,59.74
2017-09-18T18:23:33.819Z,59.73
2017-09-18T18:26:00.237Z,60.72
2017-09-18T18:28:26.678Z,61.23
2017-09-18T18:30:53.022Z,60.34
2017-09-18T18:33:19.224Z,61.31
2017-09-18T18:35:45.836Z,63.46
2017-09-18T18:38:12.324Z,65.30
2017-09-18T18:40:38.737Z,62.49
2017-09-18T18:43:05.308Z,61.41
2017-09-18T18:45:31.726Z,63.68
2017-09-18T18:47:58.142Z,64.66
2017-09-18T18:50:24.623Z,65.29
2017-09-18T18:52:51.064Z,64.20
2017-09-18T18:55:17.702Z,64.09
2017-09-18T18:57:44.340Z,62.42
2017-09-18T19:00:10.957Z,62.10
2017-09-18T19:02:37.201Z,61.94
2017-09-18T19:05:03.635Z,62.49
2017-09-18T19:07:30.257Z,61.54
2017-09-18T19:09:56.668Z,63.34
2017-09-18T19:12:22.943Z,64.38
2017-09-18T19:14:49.131Z,62.97
2017-09-18T19:17:15.325Z,64.98
2017-09-18T19:19:41.822Z,64.08
2017-09-18T19:22:08.054Z,63.59
2017-09-18T19:24:34.286Z,63.68
2017-09-18T19:27:00.711Z,64.81
2017-09-18T19:29:27.145Z,62.22
2017-09-18T19:31:53.430Z,63.69
2017-09-18T19:34:19.842Z,65.07
2017-09-18T19:36:46.181Z,65.68
2017-09-18T19:39:12.464Z,64.77
2017-09-18T19:41:38.892Z,66.72
2017-09-18T19:44:05.132Z,65.38
2017-09-18T19:46:31.360Z,65.04
2017-09-18T19:48:57.844Z,61.69
2017-09-18T19:51:24.436Z,64.11
2017-09-18T19:53:50.900Z,61.37
2017-09-18T19:56:17.472Z,62.62
2017-09-18T19:58:43.888Z,65.68
2017-09-18T20:01:10.151Z,64.33
2017-09-18T20:03:36.399Z,66.33
2017-09-18T20:06:02.820Z,66.73
2017-09-18T20:08:29.469Z,68.12
2017-09-18T20:10:55.889Z,68.03
2017-09-18T20:13:22.089Z,69.94
2017-09-18T20:15:48.354Z,70.65
2017-09-18T20:18:14.955Z,71.11
2017-09-18T20:20:41.214Z,69.78
2017-09-18T20:23:07.638Z,70.31
2017-09-18T20:25:34.294Z,70.64
2017-09-18T20:28:00.572Z,71.18
2017-09-18T20:30:26.765Z,71.64
2017-09-18T20:32:53.008Z,73.09
2017-09-18T20:35:19.352Z,71.72
2017-09-18T20:37:45.562Z,73.33
2017-09-18T20:40:11.872Z,73.71
2017-09-18T20:42:38.100Z,74.06
2017-09-18T20:45:04.586Z,73.71
2017-09-18T20:47:30.960Z,72.63
2017-09-18T20:49:57.349Z,72.36
2017-09-18T20:52:23.542Z,69.60
2017-09-18T20:54:50.057Z,69.93
2017-09-18T20:57:16.550Z,72.63
2017-09-18T20:59:42.922Z,72.86
2017-09-18T21:02:09.356Z,72.84
2017-09-18T21:04:35.593Z,72.85
2017-09-18T21:07:02.017Z,72.84
2017-09-18T21:09:28.511Z,73.51
2017-09-18T21:11:54.867Z,71.45
2017-09-18T21:14:21.267Z,71.24
2017-09-18T21:16:47.548Z,71.02
2017-09-18T21:19:13.776Z,71.95
2017-09-18T21:21:40.270Z,70.76
2017-09-18T21:24:06.711Z,71.18
2017-09-18T21:26:32.924Z,71.11
2017-09-18T21:28:59.117Z,70.95
2017-09-18T21:31:25.491Z,73.29
2017-09-18T21:33:51.911Z,69.98
2017-09-18T21:36:18.187Z,68.50
2017-09-18T21:38:44.570Z,68.34
2017-09-18T21:41:10.907Z,69.53
2017-09-18T21:43:37.294Z,69.37
2017-09-18T21:46:03.537Z,69.51
2017-09-18T21:48:29.947Z,70.35
2017-09-18T21:50:56.183Z,72.37
2017-09-18T21:53:22.765Z,73.67
2017-09-18T21:55:49.213Z,72.60
2017-09-18T21:58:15.628Z,72.66
2017-09-18T22:00:41.852Z,72.37
2017-09-18T22:03:08.012Z,73.46
2017-09-18T22:05:34.157Z,71.22
2017-09-18T22:08:00.363Z,73.47
2017-09-18T22:10:26.507Z,74.37
2017-09-18T22:12:52.682Z,74.32
2017-09-18T22:15:19.010Z,75.35
2017-09-18T22:17:45.178Z,76.62
2017-09-18T22:20:11.324Z,75.89
2017-09-18T22:22:37.678Z,74.97
2017-09-18T22:25:03.829Z,75.25
2017-09-18T22:27:29.978Z,75.54
2017-09-18T22:29:56.205Z,75.81
2017-09-18T22:32:22.364Z,75.89
2017-09-18T22:34:48.527Z,76.28
2017-09-18T22:37:14.894Z,76.49
2017-09-18T22:39:41.126Z,76.26
2017-09-18T22:42:07.290Z,77.13
2017-09-18T22:44:33.505Z,77.43
2017-09-18T22:46:59.852Z,76.19
2017-09-18T22:49:26.483Z,76.43
2017-09-18T22:51:52.780Z,76.90
2017-09-18T22:54:19.196Z,77.76
2017-09-18T22:56:45.643Z,78.17
2017-09-18T22:59:12.151Z,78.54
2017-09-18T23:01:38.436Z,78.22
2017-09-18T23:04:04.588Z,75.49
2017-09-18T23:06:30.928Z,74.90
2017-09-18T23:08:57.327Z,74.44
2017-09-18T23:11:23.767Z,74.32
2017-09-18T23:13:50.381Z,73.72
2017-09-18T23:16:16.803Z,74.86
2017-09-18T23:18:43.120Z,76.40
2017-09-18T23:21:09.503Z,77.07
2017-09-18T23:23:35.726Z,77.34
2017-09-18T23:26:02.219Z,77.24
2017-09-18T23:28:29.003Z,77.83
2017-09-18T23:30:55.630Z,78.34
2017-09-18T23:33:22.078Z,78.78
2017-09-18T23:35:48.500Z,78.62
2017-09-18T23:38:14.948Z,78.49
2017-09-18T23:40:41.169Z,78.26
2017-09-18T23:43:07.588Z,78.61
2017-09-18T23:45:33.820Z,78.01
2017-09-18T23:48:00.011Z,78.08
2017-09-18T23:50:26.272Z,78.35
2017-09-18T23:52:52.461Z,79.26
2017-09-18T23:55:18.747Z,79.39
2017-09-18T23:57:45.163Z,80.33
